Bedford, Michigan
Current Conditions -  °F | °C
As of 2:53 PM on Monday 26 Jan 2015 (Local Time) from KBTL Reporting Station
Overcast Overcast  
Wind Chill: 26°   Ceiling: 11000
Heat Index: 26°   Visibility: 10mi
Dew Point:   Wind: 0mph
Humidity: 41%   Direction: NA
Pressure: 29.88"   Gusts: NA
Location:  42.4°N, 85.23°W
Report Text: KBTL 261953Z 00000KT 10SM SCT085 OVC110 M03/M15 A2988 RMK AO2 SLP132 T10331150
Loading
Personal Weather Stations






























Interactive Weather Map New forecast layout! Learn more

10-Day Weather Forecast

Advertisements
Track Severe Weather on mobile